createdAt,value
2018-06-16T00:00:26.340Z,70.65
2018-06-16T00:02:55.392Z,70.79
2018-06-16T00:05:24.716Z,70.64
2018-06-16T00:07:53.627Z,70.92
2018-06-16T00:10:23.018Z,69.76
2018-06-16T00:12:52.862Z,70.18
2018-06-16T00:15:21.847Z,69.63
2018-06-16T00:17:51.054Z,70.01
2018-06-16T00:20:20.707Z,70.48
2018-06-16T00:22:49.740Z,70.85
2018-06-16T00:25:18.733Z,71.52
2018-06-16T00:27:47.615Z,71.53
2018-06-16T00:30:16.695Z,71.87
2018-06-16T00:32:46.571Z,72.08
2018-06-16T00:35:15.510Z,73.29
2018-06-16T00:37:44.535Z,73.59
2018-06-16T00:40:13.540Z,74.34
2018-06-16T00:42:43.296Z,74.40
2018-06-16T00:45:12.244Z,74.80
2018-06-16T00:47:41.384Z,74.61
2018-06-16T00:50:11.309Z,74.87
2018-06-16T00:52:41.028Z,75.08
2018-06-16T00:55:10.130Z,74.94
2018-06-16T00:57:45.071Z,75.25
2018-06-16T01:00:14.927Z,75.20
2018-06-16T01:02:43.865Z,74.89
2018-06-16T01:05:12.913Z,75.33
2018-06-16T01:07:42.075Z,75.33
2018-06-16T01:10:11.965Z,75.78
2018-06-16T01:12:41.869Z,75.45
2018-06-16T01:15:10.901Z,75.52
2018-06-16T01:17:39.837Z,75.86
2018-06-16T01:20:09.647Z,75.62
2018-06-16T01:22:38.582Z,75.96
2018-06-16T01:25:07.584Z,75.85
2018-06-16T01:27:37.757Z,75.76
2018-06-16T01:30:06.769Z,76.09
2018-06-16T01:32:35.676Z,76.02
2018-06-16T01:35:05.894Z,75.65
2018-06-16T01:37:34.819Z,75.69
2018-06-16T01:40:04.160Z,75.99
2018-06-16T01:42:33.235Z,75.68
2018-06-16T01:45:02.266Z,75.91
2018-06-16T01:47:31.204Z,75.96
2018-06-16T01:50:00.949Z,75.68
2018-06-16T01:52:29.864Z,75.99
2018-06-16T01:54:58.793Z,75.91
2018-06-16T01:57:28.905Z,76.14
2018-06-16T01:59:57.823Z,76.22
2018-06-16T02:02:26.828Z,75.85
2018-06-16T02:04:55.924Z,75.98
2018-06-16T02:07:24.866Z,76.10
2018-06-16T02:09:56.769Z,75.87
2018-06-16T02:12:25.704Z,75.51
2018-06-16T02:14:54.754Z,75.47
2018-06-16T02:17:23.774Z,75.05
2018-06-16T02:19:52.833Z,75.18
2018-06-16T02:22:21.866Z,74.23
2018-06-16T02:24:50.958Z,73.27
2018-06-16T02:27:19.883Z,73.04
2018-06-16T02:29:48.882Z,73.12
2018-06-16T02:32:17.918Z,73.19
2018-06-16T02:34:46.923Z,73.31
2018-06-16T02:37:15.904Z,72.37
2018-06-16T02:39:45.020Z,72.60
2018-06-16T02:42:13.967Z,72.42
2018-06-16T02:44:44.531Z,72.67
2018-06-16T02:47:13.564Z,72.55
2018-06-16T02:49:42.492Z,72.96
2018-06-16T02:52:11.401Z,73.02
2018-06-16T02:54:40.373Z,73.17
2018-06-16T02:57:10.220Z,73.12
2018-06-16T02:59:40.348Z,72.95
2018-06-16T03:02:10.044Z,72.67
2018-06-16T03:04:39.063Z,72.48
2018-06-16T03:07:08.877Z,72.68
2018-06-16T03:09:38.462Z,72.95
2018-06-16T03:12:08.221Z,73.07
2018-06-16T03:14:37.428Z,73.11
2018-06-16T03:17:06.505Z,73.19
2018-06-16T03:19:35.478Z,72.98
2018-06-16T03:22:04.481Z,72.98
2018-06-16T03:24:33.480Z,72.62
2018-06-16T03:27:02.504Z,72.55
2018-06-16T03:29:31.638Z,72.64
2018-06-16T03:32:00.740Z,72.84
2018-06-16T03:34:29.665Z,72.94
2018-06-16T03:36:58.664Z,73.07
2018-06-16T03:39:27.611Z,72.94
2018-06-16T03:41:56.528Z,72.35
2018-06-16T03:44:25.585Z,72.87
2018-06-16T03:46:54.588Z,72.33
2018-06-16T03:49:23.552Z,72.19
2018-06-16T03:51:52.680Z,71.80
2018-06-16T03:54:21.647Z,71.35
2018-06-16T03:56:51.543Z,70.95
2018-06-16T03:59:20.676Z,70.73
2018-06-16T04:01:49.926Z,70.11
2018-06-16T04:04:18.924Z,69.88
2018-06-16T04:06:48.497Z,69.79
2018-06-16T04:09:17.452Z,69.88
2018-06-16T04:11:46.476Z,70.02
2018-06-16T04:14:15.459Z,69.67
2018-06-16T04:16:44.399Z,70.36
2018-06-16T04:19:14.084Z,70.59
2018-06-16T04:21:43.184Z,70.72
2018-06-16T04:24:12.184Z,71.27
2018-06-16T04:26:41.150Z,71.42
2018-06-16T04:29:10.844Z,71.57
2018-06-16T04:31:39.809Z,71.34
2018-06-16T04:34:08.739Z,71.59
2018-06-16T04:36:39.423Z,70.67
2018-06-16T04:39:09.831Z,69.89
2018-06-16T04:41:39.092Z,70.70
2018-06-16T04:44:08.073Z,68.31
2018-06-16T04:46:37.131Z,67.78
2018-06-16T04:49:06.965Z,67.25
2018-06-16T04:51:36.164Z,65.87
2018-06-16T04:54:05.332Z,65.25
2018-06-16T04:56:34.393Z,62.74
2018-06-16T04:59:03.347Z,60.91
2018-06-16T05:01:32.299Z,61.12
2018-06-16T05:04:01.547Z,60.77
2018-06-16T05:06:30.569Z,63.89
2018-06-16T05:08:59.527Z,64.26
2018-06-16T05:11:28.715Z,63.22
2018-06-16T05:13:57.686Z,62.74
2018-06-16T05:16:26.663Z,60.24
2018-06-16T05:18:55.736Z,61.12
2018-06-16T05:21:24.660Z,60.91
2018-06-16T05:23:53.713Z,59.79
2018-06-16T05:26:23.350Z,60.07
2018-06-16T05:28:52.409Z,60.29
2018-06-16T05:31:21.672Z,59.22
2018-06-16T05:33:51.243Z,58.03
2018-06-16T05:36:21.027Z,56.75
2018-06-16T05:38:50.499Z,55.79
2018-06-16T05:41:19.619Z,55.63
2018-06-16T05:43:48.564Z,56.50
2018-06-16T05:46:17.595Z,54.30
2018-06-16T05:48:46.626Z,55.87
2018-06-16T05:51:15.576Z,58.96
2018-06-16T05:53:44.553Z,59.83
2018-06-16T05:56:16.147Z,55.95
2018-06-16T05:58:45.099Z,60.31
2018-06-16T06:01:14.097Z,55.15
2018-06-16T06:03:43.581Z,59.25
2018-06-16T06:06:12.664Z,58.12
2018-06-16T06:08:41.658Z,59.67
2018-06-16T06:11:11.224Z,56.21
2018-06-16T06:13:40.213Z,57.32
2018-06-16T06:16:09.368Z,56.42
2018-06-16T06:18:39.247Z,58.48
2018-06-16T06:21:08.193Z,56.76
2018-06-16T06:23:37.262Z,61.63
2018-06-16T06:26:06.286Z,63.36
2018-06-16T06:28:36.488Z,56.37
2018-06-16T06:31:05.465Z,59.62
2018-06-16T06:33:34.343Z,59.02
2018-06-16T06:36:03.391Z,57.96
2018-06-16T06:38:32.376Z,59.31
2018-06-16T06:41:01.360Z,60.54
2018-06-16T06:43:30.397Z,59.54
2018-06-16T06:45:59.554Z,55.08
2018-06-16T06:48:29.179Z,57.49
2018-06-16T06:50:58.680Z,59.79
2018-06-16T06:53:27.821Z,56.87
2018-06-16T06:55:57.322Z,59.02
2018-06-16T06:58:26.249Z,59.39
2018-06-16T07:00:55.390Z,54.58
2018-06-16T07:03:24.385Z,54.35
2018-06-16T07:05:53.336Z,55.56
2018-06-16T07:08:23.165Z,57.26
2018-06-16T07:10:52.370Z,55.31
2018-06-16T07:13:21.368Z,53.44
2018-06-16T07:15:50.962Z,55.34
2018-06-16T07:18:20.072Z,54.27
2018-06-16T07:20:49.073Z,57.00
2018-06-16T07:23:18.123Z,56.30
2018-06-16T07:25:47.166Z,55.28
2018-06-16T07:28:16.176Z,52.24
2018-06-16T07:30:45.421Z,52.76
2018-06-16T07:33:14.611Z,55.35
2018-06-16T07:35:43.560Z,52.78
2018-06-16T07:38:12.864Z,49.73
2018-06-16T07:40:41.912Z,50.12
2018-06-16T07:43:11.652Z,49.97
2018-06-16T07:45:41.252Z,50.02
2018-06-16T07:48:10.390Z,51.46
2018-06-16T07:50:39.323Z,48.89
2018-06-16T07:53:08.312Z,49.85
2018-06-16T07:55:37.231Z,48.60
2018-06-16T07:58:06.204Z,48.48
2018-06-16T08:00:35.324Z,49.16
2018-06-16T08:03:04.349Z,48.52
2018-06-16T08:05:33.293Z,48.65
2018-06-16T08:08:02.331Z,50.71
2018-06-16T08:10:31.394Z,49.89
2018-06-16T08:13:00.364Z,50.46
2018-06-16T08:15:30.292Z,50.56
2018-06-16T08:17:59.287Z,50.32
2018-06-16T08:20:28.227Z,47.07
2018-06-16T08:22:57.332Z,48.13
2018-06-16T08:25:26.916Z,49.15
2018-06-16T08:27:56.783Z,47.65
2018-06-16T08:30:25.835Z,47.20
2018-06-16T08:32:54.769Z,47.16
2018-06-16T08:35:24.745Z,48.30
2018-06-16T08:37:53.880Z,45.24
2018-06-16T08:40:23.541Z,47.92
2018-06-16T08:42:52.693Z,45.63
2018-06-16T08:45:22.024Z,44.92
2018-06-16T08:47:50.952Z,44.11
2018-06-16T08:50:19.863Z,42.52
2018-06-16T08:52:49.042Z,41.05
2018-06-16T08:55:18.218Z,41.75
2018-06-16T08:57:47.846Z,40.66
2018-06-16T09:00:16.920Z,40.51
2018-06-16T09:02:45.862Z,41.87
2018-06-16T09:05:15.414Z,41.68
2018-06-16T09:07:44.997Z,42.50
2018-06-16T09:10:14.164Z,40.61
2018-06-16T09:12:43.269Z,39.35
2018-06-16T09:15:12.254Z,41.00
2018-06-16T09:17:41.310Z,42.00
2018-06-16T09:20:10.286Z,43.11
2018-06-16T09:22:40.276Z,46.18
2018-06-16T09:25:09.227Z,45.02
2018-06-16T09:27:38.777Z,46.28
2018-06-16T09:30:07.765Z,46.44
2018-06-16T09:32:36.702Z,48.37
2018-06-16T09:35:05.755Z,48.88
2018-06-16T09:37:34.830Z,50.36
2018-06-16T09:40:04.006Z,49.66
2018-06-16T09:42:32.973Z,49.00
2018-06-16T09:45:05.299Z,50.48
2018-06-16T09:47:36.103Z,53.25
2018-06-16T09:50:05.741Z,52.02
2018-06-16T09:52:34.724Z,50.44
2018-06-16T09:55:03.760Z,52.79
2018-06-16T09:57:32.790Z,55.65
2018-06-16T10:00:01.753Z,57.63
2018-06-16T10:02:30.682Z,57.74
2018-06-16T10:04:59.774Z,59.85
2018-06-16T10:07:28.705Z,59.40
2018-06-16T10:09:58.459Z,59.29
2018-06-16T10:12:28.270Z,60.78
2018-06-16T10:14:57.331Z,62.29
2018-06-16T10:17:26.344Z,60.05
2018-06-16T10:19:55.339Z,62.14
2018-06-16T10:22:25.009Z,63.15
2018-06-16T10:24:54.040Z,64.65
2018-06-16T10:27:23.260Z,64.54
2018-06-16T10:29:52.415Z,65.51
2018-06-16T10:32:21.349Z,68.01
2018-06-16T10:34:50.405Z,66.81
2018-06-16T10:37:19.365Z,66.30
2018-06-16T10:39:48.268Z,70.90
2018-06-16T10:42:17.311Z,73.25
2018-06-16T10:44:46.347Z,74.12
2018-06-16T10:47:15.387Z,71.24
2018-06-16T10:49:44.565Z,73.00
2018-06-16T10:52:13.528Z,74.55
2018-06-16T10:54:42.536Z,69.29
2018-06-16T10:57:11.717Z,72.08
2018-06-16T10:59:40.683Z,69.26
2018-06-16T11:02:09.798Z,70.56
2018-06-16T11:04:39.486Z,73.42
2018-06-16T11:07:08.549Z,72.48
2018-06-16T11:09:39.050Z,74.75
2018-06-16T11:12:08.138Z,78.44
2018-06-16T11:14:37.736Z,78.45
2018-06-16T11:17:07.051Z,79.34
2018-06-16T11:19:36.130Z,78.69
2018-06-16T11:22:05.653Z,79.09
2018-06-16T11:24:34.646Z,78.32
2018-06-16T11:27:03.708Z,78.54
2018-06-16T11:29:32.643Z,79.76
2018-06-16T11:32:04.102Z,79.79
2018-06-16T11:34:33.209Z,79.87
2018-06-16T11:37:02.222Z,80.68
2018-06-16T11:39:31.188Z,80.47
2018-06-16T11:42:00.172Z,79.53
2018-06-16T11:44:29.140Z,79.33
2018-06-16T11:46:58.129Z,80.03
2018-06-16T11:49:27.229Z,78.63
2018-06-16T11:51:56.983Z,76.99
2018-06-16T11:54:25.910Z,78.92
2018-06-16T11:56:56.221Z,78.73
2018-06-16T11:59:25.176Z,78.75
2018-06-16T12:01:54.791Z,76.53
2018-06-16T12:04:23.957Z,76.85
2018-06-16T12:06:52.973Z,77.14
2018-06-16T12:09:22.265Z,76.78
2018-06-16T12:11:51.332Z,76.75
2018-06-16T12:14:20.844Z,74.84
2018-06-16T12:16:49.802Z,74.78
2018-06-16T12:19:18.884Z,75.56
2018-06-16T12:21:47.896Z,76.92
2018-06-16T12:24:16.844Z,77.71
2018-06-16T12:26:45.859Z,77.54
2018-06-16T12:29:14.850Z,76.54
2018-06-16T12:31:43.796Z,78.21
2018-06-16T12:34:12.881Z,75.89
2018-06-16T12:36:41.799Z,74.71
2018-06-16T12:39:11.783Z,75.20
2018-06-16T12:41:41.057Z,73.18
2018-06-16T12:44:10.032Z,73.28
2018-06-16T12:46:39.605Z,73.43
2018-06-16T12:49:09.043Z,72.64
2018-06-16T12:51:38.024Z,73.06
2018-06-16T12:54:07.350Z,71.94
2018-06-16T12:56:36.373Z,70.86
2018-06-16T12:59:05.324Z,72.66
2018-06-16T13:01:34.252Z,70.72
2018-06-16T13:04:03.991Z,71.58
2018-06-16T13:06:33.526Z,73.58
2018-06-16T13:09:02.576Z,71.07
2018-06-16T13:11:31.642Z,69.21
2018-06-16T13:14:00.551Z,69.01
2018-06-16T13:16:29.489Z,68.30
2018-06-16T13:18:58.775Z,67.63
2018-06-16T13:21:27.927Z,66.20
2018-06-16T13:23:57.188Z,66.78
2018-06-16T13:26:26.261Z,64.87
2018-06-16T13:28:55.764Z,63.89
2018-06-16T13:31:25.131Z,63.27
2018-06-16T13:33:54.160Z,63.24
2018-06-16T13:36:23.175Z,63.08
2018-06-16T13:38:52.156Z,59.79
2018-06-16T13:41:21.223Z,61.76
2018-06-16T13:43:50.232Z,58.55
2018-06-16T13:46:19.206Z,61.18
2018-06-16T13:48:48.320Z,61.15
2018-06-16T13:51:17.378Z,59.70
2018-06-16T13:53:46.350Z,59.05
2018-06-16T13:56:16.032Z,58.32
2018-06-16T13:58:45.065Z,59.09
2018-06-16T14:01:14.050Z,58.14
2018-06-16T14:03:43.122Z,57.50
2018-06-16T14:06:12.746Z,57.62
2018-06-16T14:08:41.772Z,55.96
2018-06-16T14:11:10.783Z,56.66
2018-06-16T14:13:39.707Z,53.74
2018-06-16T14:16:08.754Z,53.96
2018-06-16T14:18:37.803Z,54.45
2018-06-16T14:21:06.950Z,52.68
2018-06-16T14:23:36.099Z,53.37
2018-06-16T14:26:05.261Z,51.50
2018-06-16T14:28:34.269Z,51.12
2018-06-16T14:31:03.223Z,53.78
2018-06-16T14:33:32.299Z,50.74
2018-06-16T14:36:01.255Z,53.05
2018-06-16T14:38:30.251Z,53.47
2018-06-16T14:40:59.551Z,52.95
2018-06-16T14:43:28.516Z,51.63
2018-06-16T14:45:57.452Z,52.12
2018-06-16T14:48:26.461Z,52.39
2018-06-16T14:50:55.542Z,54.34
2018-06-16T14:53:24.512Z,55.33
2018-06-16T14:55:54.432Z,54.23
2018-06-16T14:58:29.878Z,54.72
2018-06-16T15:00:59.579Z,56.28
2018-06-16T15:03:29.597Z,56.36
2018-06-16T15:05:58.504Z,56.96
2018-06-16T15:08:27.689Z,57.09
2018-06-16T15:10:56.713Z,56.19
2018-06-16T15:13:25.668Z,54.17
2018-06-16T15:15:54.757Z,52.45
2018-06-16T15:18:24.322Z,49.70
2018-06-16T15:20:53.984Z,49.70
2018-06-16T15:23:23.103Z,51.09
2018-06-16T15:25:52.974Z,51.53
2018-06-16T15:28:21.936Z,50.62
2018-06-16T15:30:51.056Z,52.01
2018-06-16T15:33:19.999Z,52.69
2018-06-16T15:35:49.031Z,50.79
2018-06-16T15:38:18.122Z,52.12
2018-06-16T15:40:47.952Z,51.72
2018-06-16T15:43:16.910Z,50.83
2018-06-16T15:45:45.967Z,51.10
2018-06-16T15:48:14.904Z,51.58
2018-06-16T15:50:43.849Z,53.05
2018-06-16T15:53:12.880Z,53.66
2018-06-16T15:55:42.596Z,53.11
2018-06-16T15:58:11.592Z,53.30
2018-06-16T16:00:41.450Z,53.81
2018-06-16T16:03:10.446Z,53.87
2018-06-16T16:05:39.486Z,55.19
2018-06-16T16:08:08.523Z,54.08
2018-06-16T16:10:37.448Z,53.83
2018-06-16T16:13:07.298Z,53.37
2018-06-16T16:15:36.314Z,53.84
2018-06-16T16:18:05.290Z,53.42
2018-06-16T16:20:34.220Z,52.24
2018-06-16T16:23:03.330Z,51.85
2018-06-16T16:25:32.272Z,51.97
2018-06-16T16:28:01.736Z,51.44
2018-06-16T16:30:31.432Z,52.08
2018-06-16T16:33:00.411Z,53.19
2018-06-16T16:35:29.320Z,50.82
2018-06-16T16:37:58.469Z,52.52
2018-06-16T16:40:27.992Z,52.72
2018-06-16T16:42:56.997Z,52.12
2018-06-16T16:45:26.077Z,53.31
2018-06-16T16:47:55.025Z,53.66
2018-06-16T16:50:24.044Z,53.71
2018-06-16T16:52:53.594Z,55.72
2018-06-16T16:55:22.574Z,53.79
2018-06-16T16:57:51.551Z,54.83
2018-06-16T17:00:20.525Z,53.44
2018-06-16T17:02:49.529Z,54.63
2018-06-16T17:05:18.495Z,53.45
2018-06-16T17:07:47.594Z,53.29
2018-06-16T17:10:16.548Z,53.47
2018-06-16T17:12:45.597Z,54.56
2018-06-16T17:15:14.679Z,54.75
2018-06-16T17:17:43.718Z,54.97
2018-06-16T17:20:12.818Z,55.50
2018-06-16T17:22:42.234Z,54.97
2018-06-16T17:25:12.023Z,55.37
2018-06-16T17:27:40.952Z,55.38
2018-06-16T17:30:10.075Z,55.54
2018-06-16T17:32:39.268Z,56.47
2018-06-16T17:35:08.281Z,55.94
2018-06-16T17:37:38.294Z,55.73
2018-06-16T17:40:08.220Z,55.53
2018-06-16T17:42:37.349Z,54.65
2018-06-16T17:45:07.022Z,55.26
2018-06-16T17:47:36.690Z,55.37
2018-06-16T17:50:05.763Z,55.61
2018-06-16T17:52:36.142Z,54.34
2018-06-16T17:55:05.244Z,55.46
2018-06-16T17:57:34.262Z,55.74
2018-06-16T18:00:03.376Z,55.11
2018-06-16T18:02:32.480Z,55.36
2018-06-16T18:05:01.570Z,56.14
2018-06-16T18:07:30.533Z,55.75
2018-06-16T18:10:01.197Z,54.64
2018-06-16T18:12:31.057Z,55.71
2018-06-16T18:15:00.495Z,56.15
2018-06-16T18:17:30.364Z,56.20
2018-06-16T18:19:59.814Z,54.36
2018-06-16T18:22:29.220Z,54.76
2018-06-16T18:24:58.439Z,56.74
2018-06-16T18:27:27.805Z,56.60
2018-06-16T18:29:57.095Z,55.83
2018-06-16T18:32:26.478Z,56.54
2018-06-16T18:34:55.968Z,56.49
2018-06-16T18:37:25.207Z,56.67
2018-06-16T18:39:54.534Z,57.07
2018-06-16T18:42:25.773Z,57.32
2018-06-16T18:44:55.189Z,56.63
2018-06-16T18:47:24.400Z,56.86
2018-06-16T18:49:53.628Z,58.01
2018-06-16T18:52:23.317Z,58.68
2018-06-16T18:54:53.746Z,57.16
2018-06-16T18:57:22.975Z,59.24
2018-06-16T18:59:52.171Z,58.02
2018-06-16T19:02:21.476Z,59.60
2018-06-16T19:04:50.688Z,58.91
2018-06-16T19:07:19.915Z,59.85
2018-06-16T19:09:49.558Z,59.41
2018-06-16T19:12:18.503Z,59.87
2018-06-16T19:14:48.130Z,59.85
2018-06-16T19:17:17.186Z,60.28
2018-06-16T19:19:46.160Z,61.98
2018-06-16T19:22:15.114Z,64.75
2018-06-16T19:24:44.790Z,65.80
2018-06-16T19:27:13.745Z,66.79
2018-06-16T19:29:43.736Z,68.67
2018-06-16T19:32:12.743Z,67.57
2018-06-16T19:34:41.798Z,69.00
2018-06-16T19:37:10.777Z,68.74
2018-06-16T19:39:39.932Z,70.29
2018-06-16T19:42:08.995Z,71.37
2018-06-16T19:44:37.947Z,72.49
2018-06-16T19:47:07.022Z,72.11
2018-06-16T19:49:36.296Z,72.28
2018-06-16T19:52:05.377Z,72.83
2018-06-16T19:54:34.518Z,72.31
2018-06-16T19:57:04.103Z,72.84
2018-06-16T19:59:33.108Z,72.43
2018-06-16T20:02:02.165Z,74.00
2018-06-16T20:04:31.180Z,72.37
2018-06-16T20:07:00.201Z,73.40
2018-06-16T20:09:30.275Z,74.19
2018-06-16T20:11:59.308Z,75.31
2018-06-16T20:14:29.314Z,76.99
2018-06-16T20:16:58.447Z,76.69
2018-06-16T20:19:27.449Z,76.88
2018-06-16T20:21:56.944Z,77.37
2018-06-16T20:24:25.989Z,78.21
2018-06-16T20:26:55.008Z,77.89
2018-06-16T20:29:23.995Z,78.01
2018-06-16T20:31:53.138Z,78.50
2018-06-16T20:34:22.420Z,78.74
2018-06-16T20:36:51.525Z,78.58
2018-06-16T20:39:20.547Z,79.47
2018-06-16T20:41:49.572Z,78.85
2018-06-16T20:44:18.571Z,78.79
2018-06-16T20:46:47.664Z,78.21
2018-06-16T20:49:16.631Z,78.61
2018-06-16T20:51:45.683Z,79.28
2018-06-16T20:54:14.867Z,79.13
2018-06-16T20:56:43.920Z,79.22
2018-06-16T20:59:13.082Z,77.85
2018-06-16T21:01:42.183Z,77.17
2018-06-16T21:04:12.160Z,77.79
2018-06-16T21:06:41.161Z,79.19
2018-06-16T21:09:11.866Z,79.25
2018-06-16T21:11:40.930Z,79.64
2018-06-16T21:14:10.100Z,80.63
2018-06-16T21:16:39.200Z,80.76
2018-06-16T21:19:08.678Z,80.76
2018-06-16T21:21:37.662Z,81.00
2018-06-16T21:24:06.728Z,81.50
2018-06-16T21:26:35.683Z,80.40
2018-06-16T21:29:05.464Z,79.98
2018-06-16T21:31:34.518Z,78.50
2018-06-16T21:34:05.075Z,77.71
2018-06-16T21:36:34.016Z,77.61
2018-06-16T21:39:03.397Z,78.46
2018-06-16T21:41:32.487Z,77.67
2018-06-16T21:44:01.432Z,76.11
2018-06-16T21:46:30.550Z,79.15
2018-06-16T21:49:00.126Z,79.19
2018-06-16T21:51:29.901Z,79.21
2018-06-16T21:53:59.927Z,80.64
2018-06-16T21:56:28.873Z,78.53
2018-06-16T21:58:57.878Z,77.38
2018-06-16T22:01:34.636Z,76.99
2018-06-16T22:04:04.181Z,77.07
2018-06-16T22:06:34.000Z,76.55
2018-06-16T22:09:04.420Z,76.49
2018-06-16T22:11:33.586Z,75.23
2018-06-16T22:14:02.504Z,73.77
2018-06-16T22:16:31.639Z,73.76
2018-06-16T22:19:00.692Z,74.23
2018-06-16T22:21:30.556Z,73.71
2018-06-16T22:23:59.619Z,73.32
2018-06-16T22:26:28.585Z,72.67
2018-06-16T22:28:57.534Z,72.13
2018-06-16T22:31:26.548Z,73.03
2018-06-16T22:33:56.131Z,72.64
2018-06-16T22:36:25.444Z,72.27
2018-06-16T22:38:54.718Z,71.97
2018-06-16T22:41:23.772Z,72.76
2018-06-16T22:43:52.719Z,72.30
2018-06-16T22:46:21.837Z,71.87
2018-06-16T22:48:50.812Z,71.79
2018-06-16T22:51:19.847Z,71.33
2018-06-16T22:53:49.966Z,71.68
2018-06-16T22:56:19.102Z,71.72
2018-06-16T22:58:48.049Z,70.69
2018-06-16T23:01:17.819Z,71.12
2018-06-16T23:03:47.452Z,70.82
2018-06-16T23:06:16.500Z,72.06
2018-06-16T23:08:45.441Z,71.69
2018-06-16T23:11:15.084Z,72.32
2018-06-16T23:13:44.105Z,73.26
2018-06-16T23:16:13.999Z,74.37
2018-06-16T23:18:42.965Z,75.87
2018-06-16T23:21:12.074Z,77.22
2018-06-16T23:23:41.631Z,77.05
2018-06-16T23:26:10.616Z,76.47
2018-06-16T23:28:40.162Z,75.74
2018-06-16T23:31:09.532Z,77.77
2018-06-16T23:33:38.490Z,76.18
2018-06-16T23:36:08.422Z,78.44
2018-06-16T23:38:37.386Z,78.82
2018-06-16T23:41:06.342Z,78.39
2018-06-16T23:43:35.875Z,78.81
2018-06-16T23:46:05.877Z,76.93
2018-06-16T23:48:34.835Z,77.13
2018-06-16T23:51:04.747Z,78.43
2018-06-16T23:53:34.607Z,78.87
2018-06-16T23:56:04.967Z,78.17
2018-06-16T23:58:34.958Z,79.06
